Time;durP1;ratioP1;P1;durP2;ratioP2;P2;SDS_P1;SDS_P2;PMS_P1;PMS_P2;Temp;Humidity;BMP_temperature;BMP_pressure;BME280_temperature;BME280_humidity;BME280_pressure;Samples;Min_cycle;Max_cycle;Signal;HPM_P1;HPM_P2
2021/12/22 00:00:02;;;;;;;17.77;17.07;;;;;;;;;;5092431;28;20190;-77
2021/12/22 00:02:31;;;;;;;18.70;17.90;;;;;;;;;;5092117;28;20229;-78
2021/12/22 00:04:58;;;;;;;18.20;17.40;;;;;;;;;;5092074;28;20322;-77
2021/12/22 00:07:26;;;;;;;18.67;17.87;;;;;;;;;;5092037;28;20755;-78
2021/12/22 00:09:53;;;;;;;18.20;17.40;;;;;;;;;;5092294;28;20247;-77
2021/12/22 00:12:19;;;;;;;18.57;17.77;;;;;;;;;;5092260;28;20308;-77
2021/12/22 00:14:46;;;;;;;19.17;18.37;;;;;;;;;;5092283;28;20614;-78
2021/12/22 00:17:13;;;;;;;18.87;18.07;;;;;;;;;;5091961;28;20671;-77
2021/12/22 00:19:40;;;;;;;18.23;17.43;;;;;;;;;;5092298;28;20197;-77
2021/12/22 00:22:06;;;;;;;19.57;18.67;;;;;;;;;;5092282;28;20272;-77
2021/12/22 00:24:34;;;;;;;19.33;18.43;;;;;;;;;;5091843;28;20229;-77
2021/12/22 00:27:02;;;;;;;18.97;18.07;;;;;;;;;;5094808;28;20725;-77
2021/12/22 00:29:29;;;;;;;18.60;17.80;;;;;;;;;;5095918;28;20190;-78
2021/12/22 00:32:09;;;;;;;18.70;17.90;;;;;;;;;;5096078;28;20303;-77
2021/12/22 00:34:44;;;;;;;17.90;17.10;;;;;;;;;;5095898;28;20193;-77
2021/12/22 00:37:11;;;;;;;18.50;17.70;;;;;;;;;;5095802;28;20644;-77
2021/12/22 00:39:39;;;;;;;18.57;17.77;;;;;;;;;;5096068;28;20244;-77
2021/12/22 00:42:06;;;;;;;19.37;18.47;;;;;;;;;;5096051;28;20244;-77
2021/12/22 00:44:33;;;;;;;19.70;18.80;;;;;;;;;;5095929;28;20280;-77
2021/12/22 00:47:00;;;;;;;18.47;17.67;;;;;;;;;;5095940;28;20281;-77
2021/12/22 00:49:27;;;;;;;19.87;18.97;;;;;;;;;;5095895;28;20610;-78
2021/12/22 00:51:53;;;;;;;18.67;17.87;;;;;;;;;;5095774;28;20317;-77
2021/12/22 00:54:20;;;;;;;20.87;19.30;;;;;;;;;;5095511;28;20641;-78
2021/12/22 00:56:48;;;;;;;19.60;18.70;;;;;;;;;;5095702;28;20197;-78
2021/12/22 00:59:16;;;;;;;20.97;20.03;;;;;;;;;;5095389;28;20303;-77
2021/12/22 01:01:43;;;;;;;18.73;17.90;;;;;;;;;;5095322;28;20248;-78
2021/12/22 01:04:10;;;;;;;19.07;17.93;;;;;;;;;;5095642;28;20597;-78
2021/12/22 01:06:36;;;;;;;19.27;18.37;;;;;;;;;;5095532;28;20250;-77
2021/12/22 01:09:04;;;;;;;18.23;17.43;;;;;;;;;;5095479;28;20201;-77
2021/12/22 01:11:30;;;;;;;19.17;18.30;;;;;;;;;;5095031;28;20700;-77
2021/12/22 01:13:59;;;;;;;18.87;17.97;;;;;;;;;;5095020;28;20198;-78
2021/12/22 01:16:25;;;;;;;19.23;18.33;;;;;;;;;;5095054;28;20201;-77
2021/12/22 01:18:52;;;;;;;18.73;17.93;;;;;;;;;;5095246;28;20190;-78
2021/12/22 01:21:24;;;;;;;18.80;17.90;;;;;;;;;;5094984;28;20198;-77
2021/12/22 01:24:01;;;;;;;19.27;18.37;;;;;;;;;;5094888;28;20229;-78
2021/12/22 01:26:28;;;;;;;19.60;18.60;;;;;;;;;;5095220;28;20236;-78
2021/12/22 01:28:55;;;;;;;17.70;16.90;;;;;;;;;;5095065;28;20201;-77
2021/12/22 01:31:24;;;;;;;16.80;16.10;;;;;;;;;;5094682;28;20283;-76
2021/12/22 01:33:51;;;;;;;17.00;16.30;;;;;;;;;;5094993;28;20259;-77
2021/12/22 01:36:18;;;;;;;16.97;16.27;;;;;;;;;;5094947;28;20193;-77
2021/12/22 01:38:45;;;;;;;17.07;16.47;;;;;;;;;;5093526;28;20612;-77
2021/12/22 01:41:11;;;;;;;21.77;19.90;;;;;;;;;;5094805;28;20197;-80
2021/12/22 01:43:38;;;;;;;17.60;16.90;;;;;;;;;;5094759;28;20692;-77
2021/12/22 01:49:08;;;;;;;17.67;17.07;;;;;;;;;;5094665;28;20229;-77
2021/12/22 01:49:10;;;;;;;18.77;17.97;;;;;;;;;;5094261;28;20198;-77
2021/12/22 01:51:40;;;;;;;17.80;17.00;;;;;;;;;;5094255;28;20693;-77
2021/12/22 01:54:08;;;;;;;19.80;19.03;;;;;;;;;;5094650;28;20248;-76
2021/12/22 01:56:35;;;;;;;19.43;18.73;;;;;;;;;;5094789;28;20228;-76
2021/12/22 01:59:04;;;;;;;19.03;18.33;;;;;;;;;;5094472;28;20194;-76
2021/12/22 02:01:32;;;;;;;19.27;18.53;;;;;;;;;;5094106;28;20680;-75
2021/12/22 02:03:59;;;;;;;18.07;17.27;;;;;;;;;;5094336;28;20194;-76
2021/12/22 02:06:27;;;;;;;16.60;16.00;;;;;;;;;;5094371;28;20190;-76
2021/12/22 02:08:54;;;;;;;17.13;16.43;;;;;;;;;;5094328;28;20687;-76
2021/12/22 02:11:22;;;;;;;18.87;18.17;;;;;;;;;;5094509;28;20225;-76
2021/12/22 02:13:55;;;;;;;19.00;18.30;;;;;;;;;;5093909;28;20194;-76
2021/12/22 02:16:27;;;;;;;18.87;18.17;;;;;;;;;;5094262;28;20182;-76
2021/12/22 02:18:54;;;;;;;17.10;16.57;;;;;;;;;;5094179;28;20194;-77
2021/12/22 02:21:24;;;;;;;16.40;15.90;;;;;;;;;;5093798;28;20201;-76
2021/12/22 02:23:52;;;;;;;16.87;16.17;;;;;;;;;;5093736;28;20312;-77
2021/12/22 02:26:23;;;;;;;16.87;16.37;;;;;;;;;;5093936;28;20202;-76
2021/12/22 02:28:58;;;;;;;16.60;16.10;;;;;;;;;;5093674;28;20198;-76
2021/12/22 02:31:25;;;;;;;17.83;17.23;;;;;;;;;;5093583;28;20308;-76
2021/12/22 02:33:52;;;;;;;15.87;15.37;;;;;;;;;;5093896;28;20201;-77
2021/12/22 02:36:24;;;;;;;16.60;16.10;;;;;;;;;;5093801;28;20190;-77
2021/12/22 02:38:55;;;;;;;17.13;16.53;;;;;;;;;;5093808;28;20265;-76
2021/12/22 02:41:23;;;;;;;16.73;16.13;;;;;;;;;;5093711;28;20244;-77
2021/12/22 02:43:55;;;;;;;16.17;15.57;;;;;;;;;;5093378;28;20194;-77
2021/12/22 02:46:22;;;;;;;16.93;16.33;;;;;;;;;;5093579;28;20276;-76
2021/12/22 02:48:50;;;;;;;19.30;18.50;;;;;;;;;;5093197;28;20652;-77
2021/12/22 02:51:17;;;;;;;18.53;17.83;;;;;;;;;;5093145;28;20711;-77
2021/12/22 02:53:48;;;;;;;18.40;17.60;;;;;;;;;;5093509;28;20252;-76
2021/12/22 02:59:09;;;;;;;19.97;19.17;;;;;;;;;;5089930;28;20233;-77
2021/12/22 03:04:25;;;;;;;20.57;19.77;;;;;;;;;;5093626;28;20182;-76
2021/12/22 03:06:53;;;;;;;20.13;19.33;;;;;;;;;;5093269;28;20251;-76
2021/12/22 03:09:21;;;;;;;18.93;18.23;;;;;;;;;;5093190;28;20248;-76
2021/12/22 03:11:50;;;;;;;18.53;17.83;;;;;;;;;;5092685;28;20623;-76
2021/12/22 03:14:17;;;;;;;20.07;19.37;;;;;;;;;;5093090;28;20272;-76
2021/12/22 03:16:44;;;;;;;19.07;18.27;;;;;;;;;;5093000;28;20194;-76
2021/12/22 03:19:10;;;;;;;19.97;19.17;;;;;;;;;;5092714;28;20285;-76
2021/12/22 03:21:37;;;;;;;20.20;19.23;;;;;;;;;;5092960;28;20229;-76
2021/12/22 03:24:04;;;;;;;18.03;17.43;;;;;;;;;;5092564;28;20229;-76
2021/12/22 03:26:31;;;;;;;19.57;18.83;;;;;;;;;;5092618;28;20255;-76
2021/12/22 03:29:00;;;;;;;18.77;18.07;;;;;;;;;;5092787;28;20255;-77
2021/12/22 03:31:27;;;;;;;19.47;18.77;;;;;;;;;;5092625;28;20285;-77
2021/12/22 03:33:53;;;;;;;21.53;20.63;;;;;;;;;;5092468;28;20664;-76
2021/12/22 03:36:20;;;;;;;18.70;17.90;;;;;;;;;;5092706;28;20198;-76
2021/12/22 03:38:48;;;;;;;18.17;17.57;;;;;;;;;;5092333;28;20664;-76
2021/12/22 03:41:14;;;;;;;18.80;18.10;;;;;;;;;;5092701;28;20194;-76
2021/12/22 03:43:41;;;;;;;18.77;18.07;;;;;;;;;;5092319;28;20281;-76
2021/12/22 03:46:09;;;;;;;18.77;18.07;;;;;;;;;;5092588;28;20272;-76
2021/12/22 03:48:36;;;;;;;18.57;17.97;;;;;;;;;;5092288;28;20220;-76
2021/12/22 03:51:03;;;;;;;17.33;16.73;;;;;;;;;;5092633;28;20197;-76
2021/12/22 03:53:30;;;;;;;17.03;16.43;;;;;;;;;;5092447;28;20232;-77
2021/12/22 03:55:56;;;;;;;16.50;16.00;;;;;;;;;;5092517;28;20666;-76
2021/12/22 03:58:23;;;;;;;16.50;16.00;;;;;;;;;;5092237;28;20190;-77
2021/12/22 04:00:52;;;;;;;16.47;15.97;;;;;;;;;;5091687;28;20721;-76
2021/12/22 04:03:22;;;;;;;17.53;16.93;;;;;;;;;;5092738;28;20285;-76
2021/12/22 04:05:49;;;;;;;18.90;18.20;;;;;;;;;;5092124;28;20583;-76
2021/12/22 04:08:18;;;;;;;18.70;18.00;;;;;;;;;;5092154;28;20338;-76
2021/12/22 04:10:45;;;;;;;19.00;18.30;;;;;;;;;;5092274;28;20284;-76
2021/12/22 04:13:12;;;;;;;21.70;20.63;;;;;;;;;;5092010;28;20312;-76
2021/12/22 04:15:39;;;;;;;19.50;18.80;;;;;;;;;;5092329;28;20282;-76
2021/12/22 04:18:05;;;;;;;20.17;19.37;;;;;;;;;;5092035;28;20285;-76
2021/12/22 04:20:33;;;;;;;18.97;18.17;;;;;;;;;;5092070;28;20247;-76
2021/12/22 04:23:00;;;;;;;16.93;16.37;;;;;;;;;;5092004;28;20236;-76
2021/12/22 04:25:28;;;;;;;18.73;18.03;;;;;;;;;;5091952;28;20194;-75
2021/12/22 04:27:56;;;;;;;16.33;15.70;;;;;;;;;;5092231;28;20275;-76
2021/12/22 04:30:24;;;;;;;17.17;16.27;;;;;;;;;;5091933;28;20688;-76
2021/12/22 04:32:51;;;;;;;16.87;16.17;;;;;;;;;;5092697;28;20261;-76
2021/12/22 04:35:18;;;;;;;17.23;16.17;;;;;;;;;;5092154;28;20240;-77
2021/12/22 04:37:46;;;;;;;16.53;15.80;;;;;;;;;;5092100;28;20251;-76
2021/12/22 04:40:13;;;;;;;18.30;17.23;;;;;;;;;;5092031;28;20194;-77
2021/12/22 04:42:40;;;;;;;17.23;16.53;;;;;;;;;;5091749;28;20285;-76
2021/12/22 04:45:08;;;;;;;16.00;15.37;;;;;;;;;;5091725;28;20233;-75
2021/12/22 04:47:35;;;;;;;15.47;14.87;;;;;;;;;;5092036;28;20194;-76
2021/12/22 04:50:02;;;;;;;17.73;16.67;;;;;;;;;;5092028;28;20281;-76
2021/12/22 04:52:36;;;;;;;15.20;14.70;;;;;;;;;;5091907;28;20222;-76
2021/12/22 04:55:05;;;;;;;17.63;16.77;;;;;;;;;;5091713;28;20580;-77
2021/12/22 04:57:33;;;;;;;18.90;17.67;;;;;;;;;;5091926;28;20206;-76
2021/12/22 05:00:00;;;;;;;17.20;16.40;;;;;;;;;;5091680;28;20660;-77
2021/12/22 05:02:27;;;;;;;14.87;14.37;;;;;;;;;;5091697;28;20672;-77
2021/12/22 05:04:54;;;;;;;16.33;15.83;;;;;;;;;;5091544;28;20216;-77
2021/12/22 05:07:20;;;;;;;15.70;15.20;;;;;;;;;;5091794;28;20283;-76
2021/12/22 05:09:47;;;;;;;16.97;16.37;;;;;;;;;;5091462;28;20233;-76
2021/12/22 05:12:15;;;;;;;15.70;15.20;;;;;;;;;;5093031;28;20306;-76
2021/12/22 05:14:44;;;;;;;15.50;15.00;;;;;;;;;;5095381;28;20225;-76
2021/12/22 05:17:18;;;;;;;17.07;16.47;;;;;;;;;;5095064;28;20690;-76
2021/12/22 05:19:45;;;;;;;17.10;16.50;;;;;;;;;;5095303;28;20186;-76
2021/12/22 05:22:12;;;;;;;19.10;18.30;;;;;;;;;;5094968;28;20232;-76
2021/12/22 05:24:38;;;;;;;18.70;18.00;;;;;;;;;;5094730;28;20711;-76
2021/12/22 05:27:07;;;;;;;17.73;17.03;;;;;;;;;;5095149;28;20236;-76
2021/12/22 05:29:35;;;;;;;17.30;16.53;;;;;;;;;;5094859;28;20197;-76
2021/12/22 05:32:03;;;;;;;17.03;16.23;;;;;;;;;;5094713;28;20190;-76
2021/12/22 05:34:30;;;;;;;19.13;18.23;;;;;;;;;;5094980;28;20198;-76
2021/12/22 05:36:57;;;;;;;20.07;19.07;;;;;;;;;;5094974;28;20201;-76
2021/12/22 05:39:24;;;;;;;17.70;17.00;;;;;;;;;;5094589;28;20656;-76
2021/12/22 05:41:50;;;;;;;16.17;15.57;;;;;;;;;;5094850;28;20200;-76
2021/12/22 05:44:17;;;;;;;17.67;16.97;;;;;;;;;;5094783;28;20232;-76
2021/12/22 05:46:45;;;;;;;15.90;15.30;;;;;;;;;;5094485;28;20284;-76
2021/12/22 05:49:12;;;;;;;17.53;16.73;;;;;;;;;;5094730;28;20194;-77
2021/12/22 05:51:38;;;;;;;14.97;14.47;;;;;;;;;;5094668;28;20273;-76
2021/12/22 05:54:05;;;;;;;17.03;16.27;;;;;;;;;;5094318;28;20316;-76
2021/12/22 05:56:32;;;;;;;16.57;15.97;;;;;;;;;;5094505;28;20743;-76
2021/12/22 05:59:00;;;;;;;17.90;16.53;;;;;;;;;;5094340;28;20254;-75
2021/12/22 06:01:30;;;;;;;17.63;16.77;;;;;;;;;;5094232;28;20198;-76
2021/12/22 06:03:59;;;;;;;16.67;16.07;;;;;;;;;;5094534;28;20194;-76
2021/12/22 06:06:26;;;;;;;16.87;16.17;;;;;;;;;;5094472;28;20193;-76
2021/12/22 06:08:53;;;;;;;18.07;17.37;;;;;;;;;;5095197;28;20294;-76
2021/12/22 06:11:19;;;;;;;17.43;16.73;;;;;;;;;;5094232;28;20190;-76
2021/12/22 06:13:46;;;;;;;18.07;17.33;;;;;;;;;;5093828;28;20668;-76
2021/12/22 06:16:13;;;;;;;16.60;15.97;;;;;;;;;;5094235;28;20197;-75
2021/12/22 06:18:43;;;;;;;22.53;21.57;;;;;;;;;;5094171;28;20193;-76
2021/12/22 06:21:12;;;;;;;20.37;19.20;;;;;;;;;;5094389;28;20259;-76
2021/12/22 06:23:39;;;;;;;18.33;17.63;;;;;;;;;;5093058;28;20280;-75
2021/12/22 06:26:06;;;;;;;17.73;16.93;;;;;;;;;;5094018;28;20620;-76
2021/12/22 06:28:32;;;;;;;16.87;16.17;;;;;;;;;;5093638;28;20292;-75
2021/12/22 06:30:59;;;;;;;16.17;15.57;;;;;;;;;;5094086;28;20225;-76
2021/12/22 06:33:26;;;;;;;18.53;17.73;;;;;;;;;;5093548;28;20272;-75
2021/12/22 06:35:52;;;;;;;18.00;17.23;;;;;;;;;;5093866;28;20229;-75
2021/12/22 06:38:20;;;;;;;19.33;18.33;;;;;;;;;;5093831;28;20190;-75
2021/12/22 06:40:47;;;;;;;19.47;18.47;;;;;;;;;;5093456;28;20237;-75
2021/12/22 06:43:15;;;;;;;18.93;18.13;;;;;;;;;;5093696;28;20332;-75
2021/12/22 06:45:42;;;;;;;20.00;19.10;;;;;;;;;;5093664;28;20259;-75
2021/12/22 06:48:09;;;;;;;19.77;18.87;;;;;;;;;;5093239;28;20654;-75
2021/12/22 06:50:35;;;;;;;22.90;21.80;;;;;;;;;;5093545;28;20276;-74
2021/12/22 06:53:02;;;;;;;21.60;20.60;;;;;;;;;;5093352;28;20226;-74
2021/12/22 06:55:30;;;;;;;21.77;20.77;;;;;;;;;;5093393;28;20571;-75
2021/12/22 06:57:59;;;;;;;21.50;20.50;;;;;;;;;;5093141;28;20190;-75
2021/12/22 07:00:25;;;;;;;20.07;19.17;;;;;;;;;;5093043;28;20197;-75
2021/12/22 07:02:53;;;;;;;23.10;21.87;;;;;;;;;;5093328;28;20225;-75
2021/12/22 07:05:20;;;;;;;20.13;19.23;;;;;;;;;;5093048;28;20664;-75
2021/12/22 07:07:47;;;;;;;22.00;20.90;;;;;;;;;;5093336;28;20277;-74
2021/12/22 07:10:14;;;;;;;20.30;19.40;;;;;;;;;;5093197;28;20193;-75
2021/12/22 07:12:42;;;;;;;21.87;20.77;;;;;;;;;;5092770;28;20257;-74
2021/12/22 07:15:12;;;;;;;21.93;20.93;;;;;;;;;;5092795;28;20280;-75
2021/12/22 07:17:40;;;;;;;22.60;21.50;;;;;;;;;;5093063;28;20244;-75
2021/12/22 07:20:08;;;;;;;21.63;20.63;;;;;;;;;;5092740;28;20319;-74
2021/12/22 07:22:34;;;;;;;23.03;21.83;;;;;;;;;;5092456;28;20251;-74
2021/12/22 07:25:01;;;;;;;21.47;20.47;;;;;;;;;;5092631;28;20679;-75
2021/12/22 07:27:28;;;;;;;22.47;21.37;;;;;;;;;;5092561;28;20233;-75
2021/12/22 07:29:56;;;;;;;23.23;22.03;;;;;;;;;;5092800;28;20282;-75
2021/12/22 07:32:23;;;;;;;21.73;20.63;;;;;;;;;;5092826;28;20197;-75
2021/12/22 07:34:52;;;;;;;23.03;21.77;;;;;;;;;;5092674;28;20261;-75
2021/12/22 07:37:20;;;;;;;23.63;22.43;;;;;;;;;;5092720;28;20193;-75
2021/12/22 07:39:47;;;;;;;20.63;19.63;;;;;;;;;;5092718;28;20263;-75
2021/12/22 07:42:13;;;;;;;24.10;22.90;;;;;;;;;;5092362;28;20743;-75
2021/12/22 07:44:40;;;;;;;23.50;22.30;;;;;;;;;;5092668;28;20208;-75
2021/12/22 07:47:08;;;;;;;26.80;25.10;;;;;;;;;;5092406;28;20659;-75
2021/12/22 07:49:35;;;;;;;22.73;21.63;;;;;;;;;;5092267;28;20285;-75
2021/12/22 07:52:02;;;;;;;23.27;22.13;;;;;;;;;;5092277;28;20229;-74
2021/12/22 07:54:28;;;;;;;25.07;23.67;;;;;;;;;;5092408;28;20286;-75
2021/12/22 07:56:55;;;;;;;25.53;24.07;;;;;;;;;;5092528;28;20285;-75
2021/12/22 07:59:22;;;;;;;25.27;23.50;;;;;;;;;;5092449;28;20251;-75
2021/12/22 08:01:49;;;;;;;23.17;22.07;;;;;;;;;;5092139;28;20237;-75
2021/12/22 08:04:17;;;;;;;21.57;20.57;;;;;;;;;;5092460;28;20280;-75
2021/12/22 08:06:43;;;;;;;23.97;22.67;;;;;;;;;;5092377;28;20189;-75
2021/12/22 08:09:10;;;;;;;28.93;27.33;;;;;;;;;;5092090;28;20656;-75
2021/12/22 08:11:37;;;;;;;21.67;20.67;;;;;;;;;;5092403;28;20190;-75
2021/12/22 08:14:04;;;;;;;26.20;24.80;;;;;;;;;;5092030;28;20679;-74
2021/12/22 08:16:30;;;;;;;22.77;21.57;;;;;;;;;;5092028;28;20228;-74
2021/12/22 08:18:57;;;;;;;23.00;21.90;;;;;;;;;;5091988;28;20622;-74
2021/12/22 08:21:25;;;;;;;25.40;24.10;;;;;;;;;;5092006;28;20197;-74
2021/12/22 08:23:52;;;;;;;23.20;21.90;;;;;;;;;;5091817;28;20268;-74
2021/12/22 08:26:19;;;;;;;27.07;25.47;;;;;;;;;;5092243;28;20258;-75
2021/12/22 08:28:49;;;;;;;28.37;26.70;;;;;;;;;;5091882;28;20582;-75
2021/12/22 08:31:15;;;;;;;32.20;30.60;;;;;;;;;;5092183;28;20198;-75
2021/12/22 08:33:45;;;;;;;25.50;23.90;;;;;;;;;;5092066;28;20267;-75
2021/12/22 08:39:01;;;;;;;23.07;21.90;;;;;;;;;;5092224;28;20235;-75
2021/12/22 08:41:30;;;;;;;22.90;21.70;;;;;;;;;;5092147;28;20209;-75
2021/12/22 08:43:58;;;;;;;22.83;21.70;;;;;;;;;;5092057;28;20277;-75
2021/12/22 08:46:25;;;;;;;22.60;21.50;;;;;;;;;;5091763;28;20281;-75
2021/12/22 08:48:52;;;;;;;21.80;20.73;;;;;;;;;;5095653;28;20653;-75
2021/12/22 08:51:18;;;;;;;24.23;22.93;;;;;;;;;;5095620;28;20248;-77
2021/12/22 08:53:45;;;;;;;23.60;22.40;;;;;;;;;;5095494;28;20261;-75
2021/12/22 08:56:13;;;;;;;21.90;20.80;;;;;;;;;;5095795;28;20278;-76
2021/12/22 08:58:40;;;;;;;21.10;20.00;;;;;;;;;;5095706;28;20566;-76
2021/12/22 09:01:07;;;;;;;20.90;19.90;;;;;;;;;;5095379;28;20194;-76
2021/12/22 09:03:33;;;;;;;20.43;19.27;;;;;;;;;;5095637;28;20210;-76
2021/12/22 09:06:01;;;;;;;25.43;23.67;;;;;;;;;;5095644;28;20574;-76
2021/12/22 09:08:27;;;;;;;23.00;21.90;;;;;;;;;;5095240;28;20194;-77
2021/12/22 09:10:54;;;;;;;24.27;22.97;;;;;;;;;;5095523;28;20219;-76
2021/12/22 09:13:23;;;;;;;23.27;22.13;;;;;;;;;;5095074;28;20225;-78
2021/12/22 09:15:50;;;;;;;23.53;22.23;;;;;;;;;;5095369;28;20285;-78
2021/12/22 09:18:17;;;;;;;23.70;22.50;;;;;;;;;;5095047;28;20196;-79
2021/12/22 09:20:46;;;;;;;26.40;24.30;;;;;;;;;;5095371;28;20255;-80
2021/12/22 09:23:13;;;;;;;24.97;23.67;;;;;;;;;;5094978;28;20226;-81
2021/12/22 09:25:39;;;;;;;24.47;23.17;;;;;;;;;;5095289;28;20212;-81
2021/12/22 09:28:06;;;;;;;24.17;22.97;;;;;;;;;;5094864;28;20232;-80
2021/12/22 09:30:38;;;;;;;25.43;24.13;;;;;;;;;;5094846;28;20193;-82
2021/12/22 09:33:05;;;;;;;26.47;24.97;;;;;;;;;;5095017;28;20225;-82
2021/12/22 09:35:32;;;;;;;26.07;24.77;;;;;;;;;;5095031;28;20247;-81
2021/12/22 09:37:59;;;;;;;24.33;22.43;;;;;;;;;;5095039;28;20229;-83
2021/12/22 09:40:26;;;;;;;21.90;20.80;;;;;;;;;;5095016;28;20198;-82
2021/12/22 09:42:53;;;;;;;24.73;23.43;;;;;;;;;;5094923;28;20272;-83
2021/12/22 09:45:23;;;;;;;26.80;25.20;;;;;;;;;;5094813;28;20256;-83
2021/12/22 09:48:16;;;;;;;23.47;22.27;;;;;;;;;;5094876;28;20190;-83
2021/12/22 09:50:48;;;;;;;26.50;24.93;;;;;;;;;;5094556;28;20193;-80
2021/12/22 09:53:16;;;;;;;27.40;25.50;;;;;;;;;;5094620;28;20600;-81
2021/12/22 09:55:43;;;;;;;24.23;23.03;;;;;;;;;;5094735;28;20334;-82
2021/12/22 09:58:10;;;;;;;29.57;27.77;;;;;;;;;;5093745;28;20281;-83
2021/12/22 10:00:37;;;;;;;26.80;25.37;;;;;;;;;;5094352;28;20198;-82
2021/12/22 10:03:06;;;;;;;28.57;26.30;;;;;;;;;;5094547;28;20319;-82
2021/12/22 10:05:33;;;;;;;25.17;23.87;;;;;;;;;;5094439;28;20232;-82
2021/12/22 10:08:07;;;;;;;25.37;24.07;;;;;;;;;;5094116;28;20210;-81
2021/12/22 10:10:33;;;;;;;25.40;24.10;;;;;;;;;;5094346;28;20220;-82
2021/12/22 10:13:05;;;;;;;24.13;22.93;;;;;;;;;;5094019;28;20735;-82
2021/12/22 10:15:34;;;;;;;24.63;23.23;;;;;;;;;;5093937;28;20304;-81
2021/12/22 10:18:09;;;;;;;25.70;24.27;;;;;;;;;;5093972;28;20648;-82
2021/12/22 10:20:36;;;;;;;24.07;22.87;;;;;;;;;;5093915;28;20276;-80
2021/12/22 10:23:03;;;;;;;25.93;23.87;;;;;;;;;;5093814;28;20316;-82
2021/12/22 10:25:31;;;;;;;25.40;24.10;;;;;;;;;;5093801;28;20664;-83
2021/12/22 10:27:59;;;;;;;23.47;22.27;;;;;;;;;;5093757;28;20194;-82
2021/12/22 10:30:27;;;;;;;24.20;22.90;;;;;;;;;;5093980;28;20277;-81
2021/12/22 10:33:05;;;;;;;25.23;23.83;;;;;;;;;;5093616;28;20284;-81
2021/12/22 10:35:34;;;;;;;24.50;23.20;;;;;;;;;;5093879;28;20250;-82
2021/12/22 10:38:01;;;;;;;25.33;24.03;;;;;;;;;;5093793;28;20194;-82
2021/12/22 10:40:31;;;;;;;25.10;23.80;;;;;;;;;;5093497;28;20229;-82
2021/12/22 10:42:58;;;;;;;27.13;25.43;;;;;;;;;;5093462;28;20743;-81
2021/12/22 10:45:26;;;;;;;27.97;26.37;;;;;;;;;;5093349;28;20230;-80
2021/12/22 10:50:39;;;;;;;22.23;21.13;;;;;;;;;;5093427;28;20656;-81
2021/12/22 10:53:05;;;;;;;26.30;24.97;;;;;;;;;;5093531;28;20614;-82
2021/12/22 10:55:39;;;;;;;27.37;25.97;;;;;;;;;;5093089;28;20696;-82
2021/12/22 10:58:16;;;;;;;27.70;26.20;;;;;;;;;;5093491;28;20230;-82
2021/12/22 11:00:43;;;;;;;27.33;25.93;;;;;;;;;;5093092;28;20201;-82
2021/12/22 11:03:13;;;;;;;29.43;27.73;;;;;;;;;;5093394;28;20193;-83
2021/12/22 11:05:44;;;;;;;27.50;26.10;;;;;;;;;;5093112;28;20233;-82
2021/12/22 11:08:21;;;;;;;30.03;28.43;;;;;;;;;;5093320;28;20197;-81
2021/12/22 11:10:49;;;;;;;28.73;27.27;;;;;;;;;;5092978;28;20227;-81
2021/12/22 11:13:18;;;;;;;28.00;26.60;;;;;;;;;;5092859;28;20240;-81
2021/12/22 11:15:45;;;;;;;27.30;25.70;;;;;;;;;;5092986;28;20229;-82
2021/12/22 11:18:25;;;;;;;26.43;24.93;;;;;;;;;;5092768;28;20194;-81
2021/12/22 11:23:47;;;;;;;25.70;24.30;;;;;;;;;;5110648;27;20552;-81
2021/12/22 11:26:15;;;;;;;23.20;21.90;;;;;;;;;;5110090;28;20748;-79
2021/12/22 11:28:42;;;;;;;23.70;22.40;;;;;;;;;;5109894;28;20254;-80
2021/12/22 11:31:10;;;;;;;24.70;23.40;;;;;;;;;;5109868;28;20250;-80
2021/12/22 11:33:39;;;;;;;24.93;23.63;;;;;;;;;;5110124;28;20193;-80
2021/12/22 11:36:07;;;;;;;24.27;23.07;;;;;;;;;;5110224;28;20258;-80
2021/12/22 11:38:34;;;;;;;24.57;23.37;;;;;;;;;;5110052;28;20197;-80
2021/12/22 11:41:11;;;;;;;24.73;23.53;;;;;;;;;;5109726;28;20197;-80
2021/12/22 11:43:39;;;;;;;27.60;26.20;;;;;;;;;;5109915;28;20213;-80
2021/12/22 11:46:06;;;;;;;27.10;25.70;;;;;;;;;;5109935;28;20319;-80
2021/12/22 11:48:33;;;;;;;26.70;25.30;;;;;;;;;;5109840;28;20201;-79
2021/12/22 11:51:00;;;;;;;27.33;25.90;;;;;;;;;;5109733;28;20197;-80
2021/12/22 11:53:47;;;;;;;27.20;25.80;;;;;;;;;;5109386;28;20197;-80
2021/12/22 11:56:29;;;;;;;27.10;25.70;;;;;;;;;;5109251;28;20575;-80
2021/12/22 11:58:57;;;;;;;26.80;25.40;;;;;;;;;;5109384;28;20232;-80
2021/12/22 12:01:24;;;;;;;26.30;25.00;;;;;;;;;;5109605;28;20204;-80
2021/12/22 12:03:50;;;;;;;25.10;23.80;;;;;;;;;;5109460;28;20229;-81
2021/12/22 12:06:18;;;;;;;26.07;24.57;;;;;;;;;;5109505;28;20197;-80
2021/12/22 12:08:47;;;;;;;25.50;23.87;;;;;;;;;;5109533;28;20729;-80
2021/12/22 12:11:17;;;;;;;25.07;23.77;;;;;;;;;;5109158;28;20647;-81
2021/12/22 12:13:49;;;;;;;24.37;23.07;;;;;;;;;;5109403;28;20229;-82
2021/12/22 12:21:57;;;;;;;26.20;24.83;;;;;;;;;;5109133;28;20252;-82
2021/12/22 12:24:34;;;;;;;25.90;24.60;;;;;;;;;;5109988;28;20272;-81
2021/12/22 12:27:01;;;;;;;25.83;24.53;;;;;;;;;;5108849;28;20317;-81
2021/12/22 12:29:43;;;;;;;25.60;24.30;;;;;;;;;;5109782;28;20273;-81
2021/12/22 12:32:31;;;;;;;26.80;25.20;;;;;;;;;;5108525;28;20240;-80
2021/12/22 12:35:13;;;;;;;26.63;25.23;;;;;;;;;;5095663;28;20229;-79
2021/12/22 12:38:00;;;;;;;24.37;23.07;;;;;;;;;;5094821;28;20229;-79
2021/12/22 12:40:42;;;;;;;23.80;22.60;;;;;;;;;;5091735;28;20223;-79
2021/12/22 12:43:08;;;;;;;25.00;23.70;;;;;;;;;;5094746;28;20311;-79
2021/12/22 12:45:44;;;;;;;25.77;24.47;;;;;;;;;;5094902;28;20225;-78
2021/12/22 12:48:30;;;;;;;25.33;24.03;;;;;;;;;;5094861;28;20730;-78
2021/12/22 12:51:14;;;;;;;26.13;24.80;;;;;;;;;;5095061;28;20194;-78
2021/12/22 12:53:41;;;;;;;24.47;23.17;;;;;;;;;;5094962;28;20656;-78
2021/12/22 12:56:09;;;;;;;24.90;23.50;;;;;;;;;;5094519;28;20677;-78
2021/12/22 12:58:51;;;;;;;25.77;24.37;;;;;;;;;;5094568;28;20668;-78
2021/12/22 13:01:18;;;;;;;25.10;23.70;;;;;;;;;;5094887;28;20190;-78
2021/12/22 13:03:48;;;;;;;26.20;24.70;;;;;;;;;;5094440;28;20232;-78
2021/12/22 13:06:16;;;;;;;25.07;23.77;;;;;;;;;;5094425;28;20194;-78
2021/12/22 13:08:44;;;;;;;26.17;24.70;;;;;;;;;;5094398;28;20194;-78
2021/12/22 13:11:14;;;;;;;26.57;25.17;;;;;;;;;;5094300;28;20193;-77
2021/12/22 13:15:46;;;;;;;25.37;24.07;;;;;;;;;;5094286;28;20566;-77
2021/12/22 13:16:40;;;;;;;23.83;22.63;;;;;;;;;;5094219;28;20254;-77
2021/12/22 13:19:07;;;;;;;25.43;24.13;;;;;;;;;;5094551;28;20209;-77
2021/12/22 13:21:35;;;;;;;24.73;23.43;;;;;;;;;;5093948;28;20284;-77
2021/12/22 13:24:02;;;;;;;25.10;23.80;;;;;;;;;;5094095;28;20716;-77
2021/12/22 13:26:29;;;;;;;24.27;23.03;;;;;;;;;;5094347;28;20277;-77
2021/12/22 13:28:55;;;;;;;24.30;23.00;;;;;;;;;;5094045;28;20576;-77
2021/12/22 13:31:22;;;;;;;24.40;23.10;;;;;;;;;;5093971;28;20189;-76
2021/12/22 13:34:02;;;;;;;24.83;23.53;;;;;;;;;;5093935;28;20200;-77
2021/12/22 13:36:28;;;;;;;23.70;22.50;;;;;;;;;;5094171;28;20182;-77
2021/12/22 13:38:59;;;;;;;23.87;22.47;;;;;;;;;;5093797;28;20687;-77
2021/12/22 13:41:29;;;;;;;23.17;21.87;;;;;;;;;;5093845;28;20710;-77
2021/12/22 13:43:57;;;;;;;25.57;24.07;;;;;;;;;;5093564;28;20228;-77
2021/12/22 13:46:24;;;;;;;22.97;21.67;;;;;;;;;;5093021;28;20232;-78
2021/12/22 13:48:53;;;;;;;23.00;21.80;;;;;;;;;;5093878;28;20267;-78
2021/12/22 13:51:21;;;;;;;23.97;22.67;;;;;;;;;;5093553;28;20356;-78
2021/12/22 13:53:48;;;;;;;23.27;21.90;;;;;;;;;;5093833;28;20197;-78
2021/12/22 13:56:17;;;;;;;23.17;21.87;;;;;;;;;;5093844;28;20251;-78
2021/12/22 13:58:45;;;;;;;23.60;22.30;;;;;;;;;;5093463;28;20259;-78
2021/12/22 14:01:27;;;;;;;23.13;21.93;;;;;;;;;;5093647;28;20318;-78
2021/12/22 14:04:05;;;;;;;22.83;21.63;;;;;;;;;;5093587;28;20245;-80
2021/12/22 14:06:33;;;;;;;24.07;22.83;;;;;;;;;;5093568;28;20274;-81
2021/12/22 14:09:02;;;;;;;24.43;23.13;;;;;;;;;;5093497;28;20273;-79
2021/12/22 14:11:32;;;;;;;24.63;23.33;;;;;;;;;;5093450;28;20198;-80
2021/12/22 14:14:19;;;;;;;24.60;23.30;;;;;;;;;;5093103;28;20276;-80
2021/12/22 14:16:46;;;;;;;24.00;22.70;;;;;;;;;;5093135;28;20276;-78
2021/12/22 14:19:15;;;;;;;24.43;23.13;;;;;;;;;;5093319;28;20190;-79
2021/12/22 14:21:41;;;;;;;24.73;23.43;;;;;;;;;;5092823;28;20229;-78
2021/12/22 14:24:08;;;;;;;25.67;24.37;;;;;;;;;;5093258;28;20661;-78
2021/12/22 14:26:45;;;;;;;24.63;23.33;;;;;;;;;;5092874;28;20225;-77
2021/12/22 14:29:12;;;;;;;25.13;23.73;;;;;;;;;;5093239;28;20185;-78
2021/12/22 14:31:53;;;;;;;23.23;21.93;;;;;;;;;;5092840;28;20672;-78
2021/12/22 14:34:20;;;;;;;22.80;21.50;;;;;;;;;;5093227;28;20224;-76
2021/12/22 14:36:48;;;;;;;24.17;22.87;;;;;;;;;;5092647;28;20237;-78
2021/12/22 14:39:15;;;;;;;25.23;23.83;;;;;;;;;;5092680;28;20230;-77
2021/12/22 14:41:44;;;;;;;25.13;23.83;;;;;;;;;;5092906;28;20230;-76
2021/12/22 14:44:21;;;;;;;26.30;24.90;;;;;;;;;;5092824;28;20310;-76